This is the latest recevied weather packets stored in our database for station/object DH9NFM-12. If no packets are shown the sender has not sent any weather packets the latest 10 day(s).
| Time | Temp. | Humidity | Pressure | Rain* | Wind** | Luminosity | Snow |
|---|---|---|---|---|---|---|---|
| 1777822638 | 24.44° C | 40% | 1011.3 hPa | 0 mm | - | - | - |
| 1777822014 | 25° C | 39% | 1011.3 hPa | 0 mm | - | - | - |
| 1777821389 | 24.44° C | 39% | 1011.4 hPa | 0 mm | - | - | - |
| 1777820764 | 24.44° C | 40% | 1011.5 hPa | 0 mm | - | - | - |
| 1777820140 | 25.56° C | 40% | 1011.5 hPa | 0 mm | - | - | - |
| 1777819515 | 24.44° C | 39% | 1011.6 hPa | 0 mm | - | - | - |
| 1777818890 | 23.89° C | 41% | 1011.7 hPa | 0 mm | - | - | - |
| 1777818266 | 25° C | 41% | 1011.8 hPa | 0 mm | - | - | - |
| 1777817641 | 25° C | 39% | 1011.9 hPa | 0 mm | - | - | - |
| 1777817016 | 25° C | 39% | 1012 hPa | 0 mm | - | - | - |
| 1777816392 | 24.44° C | 40% | 1012.1 hPa | 0 mm | - | - | - |
| 1777815767 | 23.33° C | 41% | 1012.2 hPa | 0 mm | - | - | - |
| 1777815142 | 24.44° C | 40% | 1012.3 hPa | 0 mm | - | - | - |
| 1777814518 | 25° C | 42% | 1012.4 hPa | 0 mm | - | - | - |
| 1777813893 | 23.33° C | 42% | 1012.6 hPa | 0 mm | - | - | - |
| 1777813268 | 25° C | 41% | 1012.7 hPa | 0 mm | - | - | - |
| 1777812644 | 23.89° C | 43% | 1012.8 hPa | 0 mm | - | - | - |
| 1777812019 | 25° C | 41% | 1012.9 hPa | 0 mm | - | - | - |
| 1777811395 | 23.33° C | 44% | 1013 hPa | 0 mm | - | - | - |
| 1777810770 | 22.78° C | 42% | 1013.2 hPa | 0 mm | - | - | - |
| 1777810145 | 23.89° C | 43% | 1013.2 hPa | 0 mm | - | - | - |
| 1777809520 | 23.33° C | 44% | 1013.3 hPa | 0 mm | - | - | - |
| 1777808896 | 23.89° C | 44% | 1013.4 hPa | 0 mm | - | - | - |
| 1777808271 | 21.67° C | 48% | 1013.5 hPa | 0 mm | - | - | - |
| 1777807647 | 22.22° C | 43% | 1013.6 hPa | 0 mm | - | - | - |
* Rain latest hour (hover to see other rain measurements)
** Current wind speed in m/s (hover to see current wind gust speed)